sensor_id;sensor_type;location;lat;lon;timestamp;pressure;altitude;pressure_sealevel;temperature;humidity
71791;BME280;59638;52.126;5.434;2023-05-07T00:01:34;101775.53;;;13.23;100.00
71791;BME280;59638;52.126;5.434;2023-05-07T00:04:01;101774.06;;;13.19;100.00
71791;BME280;59638;52.126;5.434;2023-05-07T00:06:29;101773.38;;;13.17;100.00
71791;BME280;59638;52.126;5.434;2023-05-07T00:08:56;101782.31;;;13.16;100.00
71791;BME280;59638;52.126;5.434;2023-05-07T00:11:23;101789.81;;;13.11;100.00
71791;BME280;59638;52.126;5.434;2023-05-07T00:13:50;101781.41;;;13.06;100.00
71791;BME280;59638;52.126;5.434;2023-05-07T00:16:16;101776.38;;;13.03;100.00
71791;BME280;59638;52.126;5.434;2023-05-07T00:18:43;101780.00;;;13.02;100.00
71791;BME280;59638;52.126;5.434;2023-05-07T00:21:10;101771.59;;;12.97;100.00
71791;BME280;59638;52.126;5.434;2023-05-07T00:23:37;101771.84;;;12.94;100.00
71791;BME280;59638;52.126;5.434;2023-05-07T00:26:03;101779.09;;;12.92;100.00
71791;BME280;59638;52.126;5.434;2023-05-07T00:28:30;101780.19;;;12.89;100.00
71791;BME280;59638;52.126;5.434;2023-05-07T00:30:56;101780.34;;;12.88;100.00
71791;BME280;59638;52.126;5.434;2023-05-07T00:33:23;101776.94;;;12.86;100.00
71791;BME280;59638;52.126;5.434;2023-05-07T00:35:49;101767.34;;;12.85;100.00
71791;BME280;59638;52.126;5.434;2023-05-07T00:38:16;101769.28;;;12.83;100.00
71791;BME280;59638;52.126;5.434;2023-05-07T00:40:42;101765.78;;;12.82;100.00
71791;BME280;59638;52.126;5.434;2023-05-07T00:43:09;101750.88;;;12.81;100.00
71791;BME280;59638;52.126;5.434;2023-05-07T00:45:35;101757.25;;;12.78;100.00
71791;BME280;59638;52.126;5.434;2023-05-07T00:48:02;101763.53;;;12.77;100.00
71791;BME280;59638;52.126;5.434;2023-05-07T00:50:31;101757.94;;;12.80;100.00
71791;BME280;59638;52.126;5.434;2023-05-07T00:52:58;101757.00;;;12.82;100.00
71791;BME280;59638;52.126;5.434;2023-05-07T00:55:25;101749.06;;;12.82;100.00
71791;BME280;59638;52.126;5.434;2023-05-07T00:57:52;101747.81;;;12.86;100.00
71791;BME280;59638;52.126;5.434;2023-05-07T01:00:18;101755.75;;;12.86;100.00
71791;BME280;59638;52.126;5.434;2023-05-07T01:02:46;101758.41;;;12.86;100.00
71791;BME280;59638;52.126;5.434;2023-05-07T01:05:15;101751.19;;;12.88;100.00
71791;BME280;59638;52.126;5.434;2023-05-07T01:07:44;101750.47;;;12.86;100.00
71791;BME280;59638;52.126;5.434;2023-05-07T01:10:11;101751.44;;;12.85;100.00
71791;BME280;59638;52.126;5.434;2023-05-07T01:12:39;101747.81;;;12.86;100.00
71791;BME280;59638;52.126;5.434;2023-05-07T01:15:08;101745.28;;;12.84;100.00
71791;BME280;59638;52.126;5.434;2023-05-07T01:17:37;101749.63;;;12.85;100.00
71791;BME280;59638;52.126;5.434;2023-05-07T01:20:05;101756.50;;;12.88;100.00
71791;BME280;59638;52.126;5.434;2023-05-07T01:22:35;101747.56;;;12.89;100.00
71791;BME280;59638;52.126;5.434;2023-05-07T01:25:03;101752.88;;;12.89;100.00
71791;BME280;59638;52.126;5.434;2023-05-07T01:27:30;101752.97;;;12.87;100.00
71791;BME280;59638;52.126;5.434;2023-05-07T01:29:57;101756.72;;;12.85;100.00
71791;BME280;59638;52.126;5.434;2023-05-07T01:32:28;101745.28;;;12.84;100.00
71791;BME280;59638;52.126;5.434;2023-05-07T01:34:55;101746.13;;;12.85;100.00
71791;BME280;59638;52.126;5.434;2023-05-07T01:37:24;101751.19;;;12.88;100.00
71791;BME280;59638;52.126;5.434;2023-05-07T01:39:52;101752.03;;;12.88;100.00
71791;BME280;59638;52.126;5.434;2023-05-07T01:42:19;101747.56;;;12.89;100.00
71791;BME280;59638;52.126;5.434;2023-05-07T01:44:46;101746.84;;;12.87;100.00
71791;BME280;59638;52.126;5.434;2023-05-07T01:47:13;101752.03;;;12.88;100.00
71791;BME280;59638;52.126;5.434;2023-05-07T01:49:41;101748.53;;;12.88;100.00
71791;BME280;59638;52.126;5.434;2023-05-07T01:52:10;101758.16;;;12.89;100.00
71791;BME280;59638;52.126;5.434;2023-05-07T01:54:37;101754.53;;;12.90;100.00
71791;BME280;59638;52.126;5.434;2023-05-07T01:57:04;101756.22;;;12.91;100.00
71791;BME280;59638;52.126;5.434;2023-05-07T01:59:30;101745.34;;;12.94;100.00
71791;BME280;59638;52.126;5.434;2023-05-07T02:01:57;101752.34;;;12.95;100.00
71791;BME280;59638;52.126;5.434;2023-05-07T02:04:23;101750.63;;;12.94;100.00
71791;BME280;59638;52.126;5.434;2023-05-07T02:06:50;101756.91;;;12.93;100.00
71791;BME280;59638;52.126;5.434;2023-05-07T02:09:17;101749.47;;;12.87;100.00
71791;BME280;59638;52.126;5.434;2023-05-07T02:11:44;101746.00;;;12.86;100.00
71791;BME280;59638;52.126;5.434;2023-05-07T02:14:10;101755.63;;;12.87;100.00
71791;BME280;59638;52.126;5.434;2023-05-07T02:16:37;101751.19;;;12.88;100.00
71791;BME280;59638;52.126;5.434;2023-05-07T02:19:03;101750.91;;;12.91;100.00
71791;BME280;59638;52.126;5.434;2023-05-07T02:21:29;101748.97;;;12.93;100.00
71791;BME280;59638;52.126;5.434;2023-05-07T02:23:56;101743.66;;;12.93;100.00
71791;BME280;59638;52.126;5.434;2023-05-07T02:26:22;101740.31;;;12.91;100.00
71791;BME280;59638;52.126;5.434;2023-05-07T02:28:49;101748.72;;;12.96;100.00
71791;BME280;59638;52.126;5.434;2023-05-07T02:31:15;101742.31;;;12.98;100.00
71791;BME280;59638;52.126;5.434;2023-05-07T02:33:42;101746.75;;;12.98;100.00
71791;BME280;59638;52.126;5.434;2023-05-07T02:36:09;101751.94;;;12.99;100.00
71791;BME280;59638;52.126;5.434;2023-05-07T02:38:36;101752.06;;;12.98;100.00
71791;BME280;59638;52.126;5.434;2023-05-07T02:41:02;101754.03;;;12.96;100.00
71791;BME280;59638;52.126;5.434;2023-05-07T02:43:29;101746.75;;;12.98;100.00
71791;BME280;59638;52.126;5.434;2023-05-07T02:46:07;101746.75;;;12.98;100.00
71791;BME280;59638;52.126;5.434;2023-05-07T02:48:34;101748.00;;;12.94;100.00
71791;BME280;59638;52.126;5.434;2023-05-07T02:51:02;101746.06;;;12.96;100.00
71791;BME280;59638;52.126;5.434;2023-05-07T02:53:28;101742.16;;;13.00;100.00
71791;BME280;59638;52.126;5.434;2023-05-07T02:55:57;101743.44;;;13.05;100.00
71791;BME280;59638;52.126;5.434;2023-05-07T02:58:23;101734.28;;;13.10;100.00
71791;BME280;59638;52.126;5.434;2023-05-07T03:00:50;101742.69;;;13.15;100.00
71791;BME280;59638;52.126;5.434;2023-05-07T03:03:17;101745.34;;;13.15;100.00
71791;BME280;59638;52.126;5.434;2023-05-07T03:05:43;101745.19;;;13.16;100.00
71791;BME280;59638;52.126;5.434;2023-05-07T03:08:10;101752.16;;;13.17;100.00
71791;BME280;59638;52.126;5.434;2023-05-07T03:10:36;101758.00;;;13.11;100.00
71791;BME280;59638;52.126;5.434;2023-05-07T03:13:03;101751.03;;;13.10;100.00
71791;BME280;59638;52.126;5.434;2023-05-07T03:15:30;101747.91;;;13.05;100.00
71791;BME280;59638;52.126;5.434;2023-05-07T03:17:56;101746.53;;;13.01;100.00
71791;BME280;59638;52.126;5.434;2023-05-07T03:20:23;101741.47;;;12.98;100.00
71791;BME280;59638;52.126;5.434;2023-05-07T03:22:49;101740.03;;;12.94;100.00
71791;BME280;59638;52.126;5.434;2023-05-07T03:25:16;101742.69;;;12.94;100.00
71791;BME280;59638;52.126;5.434;2023-05-07T03:27:42;101743.81;;;12.91;100.00
71791;BME280;59638;52.126;5.434;2023-05-07T03:30:09;101740.19;;;12.92;100.00
71791;BME280;59638;52.126;5.434;2023-05-07T03:32:36;101742.00;;;12.92;100.00
71791;BME280;59638;52.126;5.434;2023-05-07T03:35:02;101742.13;;;12.90;100.00
71791;BME280;59638;52.126;5.434;2023-05-07T03:37:29;101739.47;;;12.90;100.00
71791;BME280;59638;52.126;5.434;2023-05-07T03:39:55;101740.59;;;12.88;100.00
71791;BME280;59638;52.126;5.434;2023-05-07T03:42:22;101742.38;;;12.87;100.00
71791;BME280;59638;52.126;5.434;2023-05-07T03:44:48;101744.19;;;12.87;100.00
71791;BME280;59638;52.126;5.434;2023-05-07T03:47:15;101745.16;;;12.86;100.00
71791;BME280;59638;52.126;5.434;2023-05-07T03:49:41;101748.66;;;12.86;100.00
71791;BME280;59638;52.126;5.434;2023-05-07T03:52:08;101748.41;;;12.89;100.00
71791;BME280;59638;52.126;5.434;2023-05-07T03:54:34;101742.25;;;12.89;100.00
71791;BME280;59638;52.126;5.434;2023-05-07T03:57:00;101752.59;;;12.92;100.00
71791;BME280;59638;52.126;5.434;2023-05-07T03:59:27;101745.34;;;12.94;100.00
71791;BME280;59638;52.126;5.434;2023-05-07T04:01:54;101745.09;;;12.97;100.00
71791;BME280;59638;52.126;5.434;2023-05-07T04:04:20;101751.22;;;12.97;100.00
71791;BME280;59638;52.126;5.434;2023-05-07T04:06:47;101757.38;;;12.98;100.00
71791;BME280;59638;52.126;5.434;2023-05-07T04:09:13;101752.06;;;12.98;100.00
71791;BME280;59638;52.126;5.434;2023-05-07T04:11:40;101766.00;;;13.00;100.00
71791;BME280;59638;52.126;5.434;2023-05-07T04:14:06;101760.72;;;13.00;100.00
71791;BME280;59638;52.126;5.434;2023-05-07T04:16:34;101760.47;;;13.03;100.00
71791;BME280;59638;52.126;5.434;2023-05-07T04:19:01;101769.13;;;13.05;100.00
71791;BME280;59638;52.126;5.434;2023-05-07T04:21:27;101763.56;;;13.08;100.00
71791;BME280;59638;52.126;5.434;2023-05-07T04:23:53;101763.31;;;13.11;100.00
71791;BME280;59638;52.126;5.434;2023-05-07T04:26:20;101764.28;;;13.10;100.00
71791;BME280;59638;52.126;5.434;2023-05-07T04:28:47;101766.66;;;13.13;100.00
71791;BME280;59638;52.126;5.434;2023-05-07T04:31:13;101763.88;;;13.15;100.00
71791;BME280;59638;52.126;5.434;2023-05-07T04:33:40;101767.25;;;13.17;100.00
71791;BME280;59638;52.126;5.434;2023-05-07T04:36:06;101772.41;;;13.18;100.00
71791;BME280;59638;52.126;5.434;2023-05-07T04:38:33;101769.53;;;13.21;100.00
71791;BME280;59638;52.126;5.434;2023-05-07T04:41:03;101767.84;;;13.20;100.00
71791;BME280;59638;52.126;5.434;2023-05-07T04:43:31;101766.88;;;13.21;100.00
71791;BME280;59638;52.126;5.434;2023-05-07T04:45:57;101768.56;;;13.22;100.00
71791;BME280;59638;52.126;5.434;2023-05-07T04:48:24;101769.25;;;13.24;100.00
71791;BME280;59638;52.126;5.434;2023-05-07T04:50:51;101770.94;;;13.25;100.00
71791;BME280;59638;52.126;5.434;2023-05-07T04:53:18;101772.59;;;13.26;100.00
71791;BME280;59638;52.126;5.434;2023-05-07T04:55:44;101774.31;;;13.27;100.00
71791;BME280;59638;52.126;5.434;2023-05-07T04:58:11;101777.66;;;13.29;100.00
71791;BME280;59638;52.126;5.434;2023-05-07T05:00:39;101780.88;;;13.33;100.00
71791;BME280;59638;52.126;5.434;2023-05-07T05:03:08;101784.63;;;13.30;100.00
71791;BME280;59638;52.126;5.434;2023-05-07T05:05:35;101784.50;;;13.32;100.00
71791;BME280;59638;52.126;5.434;2023-05-07T05:08:02;101780.75;;;13.35;100.00
71791;BME280;59638;52.126;5.434;2023-05-07T05:10:28;101791.09;;;13.38;100.00
71791;BME280;59638;52.126;5.434;2023-05-07T05:12:54;101783.84;;;13.40;100.00
71791;BME280;59638;52.126;5.434;2023-05-07T05:15:21;101794.19;;;13.43;100.00
71791;BME280;59638;52.126;5.434;2023-05-07T05:17:48;101780.94;;;13.43;100.00
71791;BME280;59638;52.126;5.434;2023-05-07T05:20:14;101792.25;;;13.45;100.00
71791;BME280;59638;52.126;5.434;2023-05-07T05:22:41;101788.06;;;13.42;100.00
71791;BME280;59638;52.126;5.434;2023-05-07T05:25:08;101792.25;;;13.45;100.00
71791;BME280;59638;52.126;5.434;2023-05-07T05:27:34;101784.28;;;13.45;100.00
71791;BME280;59638;52.126;5.434;2023-05-07T05:30:02;101796.44;;;13.47;100.00
71791;BME280;59638;52.126;5.434;2023-05-07T05:32:29;101793.38;;;13.52;100.00
71791;BME280;59638;52.126;5.434;2023-05-07T05:34:55;101800.13;;;13.56;100.00
71791;BME280;59638;52.126;5.434;2023-05-07T05:37:22;101794.97;;;13.64;100.00
71791;BME280;59638;52.126;5.434;2023-05-07T05:39:49;101799.03;;;13.68;100.00
71791;BME280;59638;52.126;5.434;2023-05-07T05:42:15;101806.03;;;13.69;100.00
71791;BME280;59638;52.126;5.434;2023-05-07T05:44:41;101804.34;;;13.68;100.00
71791;BME280;59638;52.126;5.434;2023-05-07T05:47:08;101807.41;;;13.73;100.00
71791;BME280;59638;52.126;5.434;2023-05-07T05:49:34;101811.78;;;13.74;100.00
71791;BME280;59638;52.126;5.434;2023-05-07T05:52:01;101812.19;;;13.79;100.00
71791;BME280;59638;52.126;5.434;2023-05-07T05:54:27;101818.78;;;13.85;100.00
71791;BME280;59638;52.126;5.434;2023-05-07T05:56:54;101819.78;;;13.94;100.00
71791;BME280;59638;52.126;5.434;2023-05-07T05:59:20;101818.97;;;14.03;100.00
71791;BME280;59638;52.126;5.434;2023-05-07T06:01:47;101828.22;;;14.08;100.00
71791;BME280;59638;52.126;5.434;2023-05-07T06:04:13;101834.06;;;14.12;100.00
71791;BME280;59638;52.126;5.434;2023-05-07T06:06:40;101827.22;;;14.19;100.00
71791;BME280;59638;52.126;5.434;2023-05-07T06:09:06;101833.41;;;14.20;100.00
71791;BME280;59638;52.126;5.434;2023-05-07T06:11:32;101838.97;;;14.17;100.00
71791;BME280;59638;52.126;5.434;2023-05-07T06:13:59;101837.44;;;14.14;100.00
71791;BME280;59638;52.126;5.434;2023-05-07T06:16:25;101837.72;;;14.11;100.00
71791;BME280;59638;52.126;5.434;2023-05-07T06:18:52;101841.09;;;14.13;100.00
71791;BME280;59638;52.126;5.434;2023-05-07T06:21:18;101835.78;;;14.13;100.00
71791;BME280;59638;52.126;5.434;2023-05-07T06:23:44;101834.06;;;14.12;100.00
71791;BME280;59638;52.126;5.434;2023-05-07T06:26:11;101837.56;;;14.12;100.00
71791;BME280;59638;52.126;5.434;2023-05-07T06:28:37;101835.78;;;14.13;100.00
71791;BME280;59638;52.126;5.434;2023-05-07T06:31:14;101832.44;;;14.21;100.00
71791;BME280;59638;52.126;5.434;2023-05-07T06:33:42;101837.47;;;14.24;100.00
71791;BME280;59638;52.126;5.434;2023-05-07T06:36:09;101839.97;;;14.25;100.00
71791;BME280;59638;52.126;5.434;2023-05-07T06:38:35;101838.84;;;14.18;100.00
71791;BME280;59638;52.126;5.434;2023-05-07T06:41:02;101840.78;;;14.16;100.00
71791;BME280;59638;52.126;5.434;2023-05-07T06:43:28;101844.16;;;14.18;100.00
71791;BME280;59638;52.126;5.434;2023-05-07T06:45:54;101853.09;;;14.17;100.00
71791;BME280;59638;52.126;5.434;2023-05-07T06:48:21;101855.06;;;14.15;100.00
71791;BME280;59638;52.126;5.434;2023-05-07T06:50:47;101847.53;;;14.20;100.00
71791;BME280;59638;52.126;5.434;2023-05-07T06:53:14;101839.41;;;14.22;100.00
71791;BME280;59638;52.126;5.434;2023-05-07T06:55:40;101846.69;;;14.29;100.00
71791;BME280;59638;52.126;5.434;2023-05-07T06:58:07;101843.34;;;14.27;100.00
71791;BME280;59638;52.126;5.434;2023-05-07T07:00:34;101840.25;;;14.32;100.00
71791;BME280;59638;52.126;5.434;2023-05-07T07:03:01;101844.47;;;14.44;100.00
71791;BME280;59638;52.126;5.434;2023-05-07T07:05:27;101849.28;;;14.60;100.00
71791;BME280;59638;52.126;5.434;2023-05-07T07:07:53;101841.31;;;14.79;100.00
71791;BME280;59638;52.126;5.434;2023-05-07T07:10:20;101843.34;;;15.05;100.00
71791;BME280;59638;52.126;5.434;2023-05-07T07:12:48;101838.25;;;15.40;100.00
71791;BME280;59638;52.126;5.434;2023-05-07T07:15:15;101841.56;;;15.62;100.00
71791;BME280;59638;52.126;5.434;2023-05-07T07:17:42;101841.22;;;16.47;100.00
71791;BME280;59638;52.126;5.434;2023-05-07T07:20:09;101847.00;;;16.96;100.00
71791;BME280;59638;52.126;5.434;2023-05-07T07:22:37;101847.41;;;16.66;100.00
71791;BME280;59638;52.126;5.434;2023-05-07T07:25:04;101841.06;;;16.49;100.00
71791;BME280;59638;52.126;5.434;2023-05-07T07:27:30;101843.41;;;16.34;100.00
71791;BME280;59638;52.126;5.434;2023-05-07T07:29:57;101844.44;;;16.87;100.00
71791;BME280;59638;52.126;5.434;2023-05-07T07:32:23;101843.16;;;16.73;100.00
71791;BME280;59638;52.126;5.434;2023-05-07T07:34:49;101840.69;;;16.62;100.00
71791;BME280;59638;52.126;5.434;2023-05-07T07:37:16;101840.84;;;16.42;100.00
71791;BME280;59638;52.126;5.434;2023-05-07T07:39:42;101848.06;;;16.50;100.00
71791;BME280;59638;52.126;5.434;2023-05-07T07:42:09;101855.16;;;16.77;100.00
71791;BME280;59638;52.126;5.434;2023-05-07T07:44:35;101854.31;;;17.12;100.00
71791;BME280;59638;52.126;5.434;2023-05-07T07:47:01;101851.91;;;17.27;100.00
71791;BME280;59638;52.126;5.434;2023-05-07T07:49:28;101857.06;;;17.02;100.00
71791;BME280;59638;52.126;5.434;2023-05-07T07:51:54;101856.66;;;17.15;100.00
71791;BME280;59638;52.126;5.434;2023-05-07T07:54:22;101852.91;;;17.86;100.00
71791;BME280;59638;52.126;5.434;2023-05-07T07:56:48;101853.28;;;18.58;98.29
71791;BME280;59638;52.126;5.434;2023-05-07T07:59:15;101856.13;;;18.56;97.51
71791;BME280;59638;52.126;5.434;2023-05-07T08:01:44;101861.69;;;18.79;94.30
71791;BME280;59638;52.126;5.434;2023-05-07T08:04:11;101867.44;;;18.34;96.51
71791;BME280;59638;52.126;5.434;2023-05-07T08:06:38;101865.91;;;17.81;98.22
71791;BME280;59638;52.126;5.434;2023-05-07T08:09:04;101869.38;;;17.47;100.00
71791;BME280;59638;52.126;5.434;2023-05-07T08:11:31;101871.88;;;17.23;100.00
71791;BME280;59638;52.126;5.434;2023-05-07T08:13:57;101864.97;;;17.12;100.00
71791;BME280;59638;52.126;5.434;2023-05-07T08:16:24;101871.00;;;16.96;100.00
71791;BME280;59638;52.126;5.434;2023-05-07T08:18:50;101869.88;;;16.81;100.00
71791;BME280;59638;52.126;5.434;2023-05-07T08:21:17;101874.66;;;16.95;100.00
71791;BME280;59638;52.126;5.434;2023-05-07T08:23:43;101870.66;;;16.91;100.00
71791;BME280;59638;52.126;5.434;2023-05-07T08:26:09;101875.84;;;16.75;100.00
71791;BME280;59638;52.126;5.434;2023-05-07T08:28:36;101875.28;;;16.53;100.00
71791;BME280;59638;52.126;5.434;2023-05-07T08:31:02;101876.47;;;16.41;100.00
71791;BME280;59638;52.126;5.434;2023-05-07T08:33:29;101871.94;;;16.24;100.00
71791;BME280;59638;52.126;5.434;2023-05-07T08:35:55;101876.31;;;16.25;100.00
71791;BME280;59638;52.126;5.434;2023-05-07T08:38:22;101880.34;;;16.29;100.00
71791;BME280;59638;52.126;5.434;2023-05-07T08:40:48;101871.94;;;16.24;100.00
71791;BME280;59638;52.126;5.434;2023-05-07T08:43:14;101879.06;;;16.33;100.00
71791;BME280;59638;52.126;5.434;2023-05-07T08:45:41;101881.50;;;16.44;100.00
71791;BME280;59638;52.126;5.434;2023-05-07T08:48:17;101877.53;;;16.48;100.00
71791;BME280;59638;52.126;5.434;2023-05-07T08:50:44;101874.44;;;16.53;100.00
71791;BME280;59638;52.126;5.434;2023-05-07T08:53:10;101871.06;;;16.69;100.00
71791;BME280;59638;52.126;5.434;2023-05-07T08:55:37;101873.84;;;16.59;100.00
71791;BME280;59638;52.126;5.434;2023-05-07T08:58:03;101872.88;;;16.50;100.00
71791;BME280;59638;52.126;5.434;2023-05-07T09:00:30;101879.22;;;16.49;100.00
71791;BME280;59638;52.126;5.434;2023-05-07T09:02:56;101881.44;;;16.54;100.00
71791;BME280;59638;52.126;5.434;2023-05-07T09:05:23;101889.34;;;16.64;100.00
71791;BME280;59638;52.126;5.434;2023-05-07T09:07:49;101887.91;;;16.69;100.00
71791;BME280;59638;52.126;5.434;2023-05-07T09:10:20;101885.66;;;16.74;100.00
71791;BME280;59638;52.126;5.434;2023-05-07T09:12:47;101881.66;;;16.61;100.00
71791;BME280;59638;52.126;5.434;2023-05-07T09:15:14;101873.84;;;16.59;100.00
71791;BME280;59638;52.126;5.434;2023-05-07T09:17:40;101868.28;;;16.70;100.00
71791;BME280;59638;52.126;5.434;2023-05-07T09:20:08;101873.16;;;16.75;100.00
71791;BME280;59638;52.126;5.434;2023-05-07T09:22:37;101867.78;;;16.57;100.00
71791;BME280;59638;52.126;5.434;2023-05-07T09:25:06;101872.44;;;16.55;100.00
71791;BME280;59638;52.126;5.434;2023-05-07T09:27:32;101877.16;;;16.71;100.00
71791;BME280;59638;52.126;5.434;2023-05-07T09:29:59;101879.84;;;16.61;100.00
71791;BME280;59638;52.126;5.434;2023-05-07T09:32:25;101877.53;;;16.48;100.00
71791;BME280;59638;52.126;5.434;2023-05-07T09:34:53;101887.28;;;16.40;100.00
71791;BME280;59638;52.126;5.434;2023-05-07T09:37:21;101877.53;;;16.48;100.00
71791;BME280;59638;52.126;5.434;2023-05-07T09:39:49;101882.66;;;16.59;100.00
71791;BME280;59638;52.126;5.434;2023-05-07T09:42:15;101872.53;;;16.45;100.00
71791;BME280;59638;52.126;5.434;2023-05-07T09:44:45;101880.13;;;16.40;100.00
71791;BME280;59638;52.126;5.434;2023-05-07T09:47:17;101881.13;;;16.39;100.00
71791;BME280;59638;52.126;5.434;2023-05-07T09:49:47;101881.81;;;16.41;100.00
71791;BME280;59638;52.126;5.434;2023-05-07T09:52:14;101883.66;;;16.58;100.00
71791;BME280;59638;52.126;5.434;2023-05-07T09:54:41;101887.34;;;16.75;100.00
71791;BME280;59638;52.126;5.434;2023-05-07T09:57:11;101886.22;;;16.78;100.00
71791;BME280;59638;52.126;5.434;2023-05-07T09:59:38;101890.38;;;16.98;100.00
71791;BME280;59638;52.126;5.434;2023-05-07T10:02:04;101891.22;;;16.99;100.00
71791;BME280;59638;52.126;5.434;2023-05-07T10:04:32;101894.34;;;16.94;100.00
71791;BME280;59638;52.126;5.434;2023-05-07T10:06:59;101892.50;;;17.12;100.00
71791;BME280;59638;52.126;5.434;2023-05-07T10:09:26;101896.59;;;17.25;100.00
71791;BME280;59638;52.126;5.434;2023-05-07T10:11:53;101889.06;;;17.46;100.00
71791;BME280;59638;52.126;5.434;2023-05-07T10:14:21;101896.06;;;17.47;100.00
71791;BME280;59638;52.126;5.434;2023-05-07T10:16:48;101897.06;;;17.46;100.00
71791;BME280;59638;52.126;5.434;2023-05-07T10:19:15;101899.81;;;17.62;100.00
71791;BME280;59638;52.126;5.434;2023-05-07T10:21:54;101897.66;;;17.84;100.00
71791;BME280;59638;52.126;5.434;2023-05-07T10:24:33;101901.25;;;18.09;100.00
71791;BME280;59638;52.126;5.434;2023-05-07T10:27:01;101891.84;;;18.39;100.00
71791;BME280;59638;52.126;5.434;2023-05-07T10:32:43;101893.47;;;18.82;97.04
71791;BME280;59638;52.126;5.434;2023-05-07T10:35:17;101893.94;;;18.69;99.51
71791;BME280;59638;52.126;5.434;2023-05-07T10:37:45;101902.63;;;18.71;100.00
71791;BME280;59638;52.126;5.434;2023-05-07T10:40:12;101902.13;;;19.49;96.91
71791;BME280;59638;52.126;5.434;2023-05-07T10:42:39;101892.28;;;20.68;89.34
71791;BME280;59638;52.126;5.434;2023-05-07T10:45:13;101890.50;;;21.73;84.18
71791;BME280;59638;52.126;5.434;2023-05-07T10:51:20;101889.84;;;21.86;91.34
71791;BME280;59638;52.126;5.434;2023-05-07T10:53:48;101888.66;;;21.21;86.36
71791;BME280;59638;52.126;5.434;2023-05-07T10:58:43;101891.63;;;21.26;84.51
71791;BME280;59638;52.126;5.434;2023-05-07T11:01:10;101895.75;;;21.14;86.36
71791;BME280;59638;52.126;5.434;2023-05-07T11:04:18;101890.22;;;20.92;85.46
71791;BME280;59638;52.126;5.434;2023-05-07T11:12:46;101885.63;;;20.24;92.43
71791;BME280;59638;52.126;5.434;2023-05-07T11:15:13;101891.94;;;20.31;90.57
71791;BME280;59638;52.126;5.434;2023-05-07T11:17:58;101883.50;;;20.43;87.79
71791;BME280;59638;52.126;5.434;2023-05-07T11:20:48;101897.06;;;20.80;86.59
71791;BME280;59638;52.126;5.434;2023-05-07T11:28:30;101902.06;;;21.21;85.05
71791;BME280;59638;52.126;5.434;2023-05-07T11:30:57;101903.44;;;21.40;84.81
71791;BME280;59638;52.126;5.434;2023-05-07T11:33:23;101896.78;;;21.13;87.51
71791;BME280;59638;52.126;5.434;2023-05-07T11:35:53;101902.53;;;21.48;84.35
71791;BME280;59638;52.126;5.434;2023-05-07T11:38:19;101900.69;;;21.25;87.08
71791;BME280;59638;52.126;5.434;2023-05-07T11:40:55;101895.47;;;21.47;84.18
71791;BME280;59638;52.126;5.434;2023-05-07T11:43:22;101890.19;;;21.83;82.68
71791;BME280;59638;52.126;5.434;2023-05-07T11:45:48;101895.13;;;21.79;83.20
71791;BME280;59638;52.126;5.434;2023-05-07T11:48:15;101897.44;;;21.53;82.08
71791;BME280;59638;52.126;5.434;2023-05-07T11:50:50;101899.50;;;21.28;85.03
71791;BME280;59638;52.126;5.434;2023-05-07T11:53:18;101893.28;;;21.27;87.47
71791;BME280;59638;52.126;5.434;2023-05-07T11:55:44;101897.25;;;21.54;84.75
71791;BME280;59638;52.126;5.434;2023-05-07T11:58:12;101898.63;;;21.65;81.88
71791;BME280;59638;52.126;5.434;2023-05-07T12:00:48;101896.28;;;21.09;87.39
71791;BME280;59638;52.126;5.434;2023-05-07T12:03:18;101894.09;;;20.90;85.90
71791;BME280;59638;52.126;5.434;2023-05-07T12:05:46;101897.16;;;20.64;91.01
71791;BME280;59638;52.126;5.434;2023-05-07T12:08:16;101899.78;;;20.95;87.69
71791;BME280;59638;52.126;5.434;2023-05-07T12:10:45;101896.38;;;21.39;86.09
71791;BME280;59638;52.126;5.434;2023-05-07T12:13:18;101898.81;;;21.78;82.72
71791;BME280;59638;52.126;5.434;2023-05-07T12:15:45;101894.25;;;22.23;80.20
71791;BME280;59638;52.126;5.434;2023-05-07T12:18:12;101894.97;;;22.89;76.85
71791;BME280;59638;52.126;5.434;2023-05-07T12:20:39;101891.66;;;22.87;79.11
71791;BME280;59638;52.126;5.434;2023-05-07T12:23:06;101887.78;;;23.18;83.23
71791;BME280;59638;52.126;5.434;2023-05-07T12:25:37;101890.88;;;23.49;75.45
71791;BME280;59638;52.126;5.434;2023-05-07T12:28:04;101891.56;;;23.30;75.56
71791;BME280;59638;52.126;5.434;2023-05-07T12:30:32;101890.19;;;22.70;78.82
71791;BME280;59638;52.126;5.434;2023-05-07T12:33:03;101893.72;;;22.13;78.09
71791;BME280;59638;52.126;5.434;2023-05-07T12:35:30;101900.03;;;22.20;79.29
71791;BME280;59638;52.126;5.434;2023-05-07T12:37:58;101892.88;;;22.48;73.84
71791;BME280;59638;52.126;5.434;2023-05-07T12:40:58;101886.09;;;22.74;74.89
71791;BME280;59638;52.126;5.434;2023-05-07T12:43:27;101891.25;;;22.90;70.81
71791;BME280;59638;52.126;5.434;2023-05-07T12:45:55;101889.50;;;23.25;69.12
71791;BME280;59638;52.126;5.434;2023-05-07T12:48:23;101892.16;;;23.53;69.14
71791;BME280;59638;52.126;5.434;2023-05-07T12:50:50;101888.75;;;23.38;68.82
71791;BME280;59638;52.126;5.434;2023-05-07T12:53:20;101890.22;;;23.13;71.00
71791;BME280;59638;52.126;5.434;2023-05-07T12:55:50;101887.00;;;22.81;68.55
71791;BME280;59638;52.126;5.434;2023-05-07T12:58:22;101891.72;;;22.58;72.56
71791;BME280;59638;52.126;5.434;2023-05-07T13:00:50;101898.28;;;22.48;71.17
71791;BME280;59638;52.126;5.434;2023-05-07T13:03:24;101898.63;;;22.09;73.07
71791;BME280;59638;52.126;5.434;2023-05-07T13:05:52;101896.47;;;22.05;72.90